Time;durP1;ratioP1;P1;durP2;ratioP2;P2;SDS_P1;SDS_P2;PMS_P1;PMS_P2;Temp;Humidity;BMP_temperature;BMP_pressure;BME280_temperature;BME280_humidity;BME280_pressure;Samples;Min_cycle;Max_cycle;Signal;HPM_P1;HPM_P2
2023/03/29 00:01:08;;;;;;;7.55;3.63;;;;;;;0.72;81.22;101571.75;7399952;19;20489;-69
2023/03/29 00:03:42;;;;;;;7.68;3.65;;;;;;;0.71;81.21;101557.09;7398692;19;20513;-70
2023/03/29 00:06:13;;;;;;;7.78;4.07;;;;;;;0.71;81.14;101557.09;7400651;19;20520;-70
2023/03/29 00:08:44;;;;;;;6.55;3.95;;;;;;;0.73;81.38;101562.28;7399274;19;20018;-70
2023/03/29 00:11:13;;;;;;;9.75;4.45;;;;;;;0.73;81.42;101559.72;7400348;19;20097;-70
2023/03/29 00:13:41;;;;;;;9.13;3.90;;;;;;;0.73;81.42;101550.25;7398659;19;20016;-71
2023/03/29 00:16:11;;;;;;;7.93;3.90;;;;;;;0.73;81.51;101551.97;7399827;19;20083;-70
2023/03/29 00:18:42;;;;;;;7.20;4.70;;;;;;;0.73;81.35;101550.25;7398393;19;20031;-71
2023/03/29 00:21:11;;;;;;;13.20;4.00;;;;;;;0.73;81.41;101544.22;7399934;19;20078;-71
2023/03/29 00:23:39;;;;;;;16.63;4.15;;;;;;;0.73;81.56;101541.63;7398572;19;20082;-71
2023/03/29 00:26:08;;;;;;;9.55;3.78;;;;;;;0.71;81.59;101540.69;7399646;19;20100;-71
2023/03/29 00:28:37;;;;;;;8.68;4.13;;;;;;;0.70;81.48;101536.38;7399920;19;20019;-71
2023/03/29 00:31:07;;;;;;;10.88;4.50;;;;;;;0.67;81.46;101532.00;7400284;19;20085;-71
2023/03/29 00:33:36;;;;;;;10.38;3.70;;;;;;;0.64;81.60;101534.47;7397023;19;20021;-71
2023/03/29 00:36:09;;;;;;;14.73;4.30;;;;;;;0.62;81.81;101528.38;7399156;19;20022;-70
2023/03/29 00:38:37;;;;;;;8.80;4.20;;;;;;;0.60;81.74;101528.31;7398942;19;20035;-70
2023/03/29 00:41:08;;;;;;;9.45;4.03;;;;;;;0.59;81.93;101512.78;7396465;19;20100;-70
2023/03/29 00:43:52;;;;;;;10.40;3.42;;;;;;;0.56;82.05;101507.53;7398247;19;20015;-70
2023/03/29 00:46:21;;;;;;;12.57;4.75;;;;;;;0.56;82.02;101512.69;7398584;19;20101;-70
2023/03/29 00:48:49;;;;;;;8.35;3.72;;;;;;;0.53;82.29;101510.00;7398127;19;20074;-70
2023/03/29 00:51:22;;;;;;;9.57;4.25;;;;;;;0.54;82.13;101501.44;7398365;19;20007;-70
2023/03/29 00:53:54;;;;;;;8.63;4.07;;;;;;;0.53;82.14;101499.69;7397751;19;20440;-68
2023/03/29 00:56:28;;;;;;;7.60;3.08;;;;;;;0.54;82.20;101501.44;7398264;19;20082;-67
2023/03/29 00:59:02;;;;;;;12.07;4.35;;;;;;;0.51;82.36;101497.06;7399103;19;20018;-76
2023/03/29 01:01:37;;;;;;;8.35;4.82;;;;;;;0.49;82.44;101493.53;7401671;19;20007;-72
2023/03/29 01:04:17;;;;;;;9.27;3.67;;;;;;;0.43;82.36;101483.91;7400067;19;20477;-73
2023/03/29 01:07:02;;;;;;;4.93;3.33;;;;;;;0.46;82.30;101483.97;7398229;19;20078;-73
2023/03/29 01:09:34;;;;;;;14.00;4.57;;;;;;;0.45;82.53;101482.22;7397759;19;20086;-72
2023/03/29 01:12:07;;;;;;;11.40;4.07;;;;;;;0.44;82.63;101477.91;7398490;19;20011;-72
2023/03/29 01:14:39;;;;;;;7.43;3.75;;;;;;;0.42;82.78;101474.41;7396354;19;20446;-68
2023/03/29 01:17:09;;;;;;;10.73;3.75;;;;;;;0.40;82.77;101468.28;7397570;19;20530;-69
2023/03/29 01:19:42;;;;;;;8.02;3.80;;;;;;;0.40;82.88;101459.69;7395790;19;20007;-68
2023/03/29 01:22:24;;;;;;;10.15;4.72;;;;;;;0.39;82.90;101461.41;7397866;19;20018;-68
2023/03/29 01:25:08;;;;;;;12.25;4.18;;;;;;;0.37;83.08;101455.31;7395362;19;20588;-68
2023/03/29 01:27:54;;;;;;;11.80;4.20;;;;;;;0.36;82.83;101448.38;7397248;19;20041;-68
2023/03/29 01:30:28;;;;;;;11.45;3.65;;;;;;;0.36;83.09;101442.34;7395912;19;20082;-68
2023/03/29 01:33:01;;;;;;;11.00;4.13;;;;;;;0.36;83.01;101440.63;7396620;19;20015;-69
2023/03/29 01:35:38;;;;;;;11.57;4.82;;;;;;;0.36;82.87;101435.47;7396896;19;20014;-68
2023/03/29 01:38:12;;;;;;;9.90;3.67;;;;;;;0.38;83.21;101431.25;7396755;19;20504;-69
2023/03/29 01:40:40;;;;;;;5.53;3.85;;;;;;;0.38;83.11;101433.84;7397269;19;20025;-69
2023/03/29 01:43:23;;;;;;;9.00;4.28;;;;;;;0.40;82.85;101421.81;7396529;19;20014;-69
2023/03/29 01:46:01;;;;;;;9.13;4.00;;;;;;;0.41;82.96;101423.59;7395103;19;20082;-69
2023/03/29 01:48:33;;;;;;;13.55;3.70;;;;;;;0.43;82.84;101421.94;7396440;19;20015;-68
2023/03/29 01:51:07;;;;;;;6.10;3.67;;;;;;;0.44;82.78;101422.81;7394866;19;20517;-68
2023/03/29 01:53:42;;;;;;;12.90;4.43;;;;;;;0.46;82.81;101408.25;7395173;19;20033;-68
2023/03/29 01:56:14;;;;;;;11.82;3.67;;;;;;;0.45;82.97;101417.69;7396884;19;20010;-69
2023/03/29 01:58:50;;;;;;;14.27;3.83;;;;;;;0.47;82.92;101408.28;7396448;19;20407;-69
2023/03/29 02:01:24;;;;;;;10.23;3.58;;;;;;;0.49;82.89;101405.75;7396835;19;20018;-68
2023/03/29 02:03:58;;;;;;;7.28;3.45;;;;;;;0.50;82.84;101406.63;7394945;19;20010;-69
2023/03/29 02:06:29;;;;;;;9.57;3.63;;;;;;;0.50;82.91;101397.19;7395893;19;20014;-69
2023/03/29 02:08:58;;;;;;;11.23;4.72;;;;;;;0.51;82.68;101398.94;7396356;19;20019;-70
2023/03/29 02:11:28;;;;;;;10.23;3.65;;;;;;;0.51;82.78;101396.34;7395973;19;20082;-69
2023/03/29 02:13:59;;;;;;;10.02;3.85;;;;;;;0.51;82.49;101398.06;7394284;19;20022;-69
2023/03/29 02:16:28;;;;;;;5.57;3.40;;;;;;;0.49;82.58;101400.59;7394643;19;20074;-68
2023/03/29 02:18:59;;;;;;;13.57;4.72;;;;;;;0.51;82.57;101398.94;7393639;19;20023;-68
2023/03/29 02:21:31;;;;;;;8.18;3.60;;;;;;;0.47;82.43;101386.78;7395418;19;20032;-68
2023/03/29 02:24:05;;;;;;;7.80;3.50;;;;;;;0.52;82.31;101389.47;7394810;19;20020;-69
2023/03/29 02:26:33;;;;;;;9.98;3.97;;;;;;;0.53;82.41;101386.06;7394782;19;20035;-68
2023/03/29 02:29:05;;;;;;;9.55;3.92;;;;;;;0.53;82.26;101391.22;7395670;19;20078;-68
2023/03/29 02:31:38;;;;;;;8.75;3.92;;;;;;;0.54;82.13;101380.06;7393839;19;20022;-68
2023/03/29 02:34:14;;;;;;;8.77;4.60;;;;;;;0.54;82.03;101380.06;7394737;19;20015;-68
2023/03/29 02:36:46;;;;;;;7.13;3.80;;;;;;;0.56;81.62;101378.44;7395158;19;20050;-68
2023/03/29 02:39:16;;;;;;;8.27;3.63;;;;;;;0.56;81.72;101370.69;7395722;19;20022;-69
2023/03/29 02:41:49;;;;;;;9.50;4.07;;;;;;;0.58;81.37;101367.31;7394050;19;20082;-68
2023/03/29 02:44:23;;;;;;;9.40;4.05;;;;;;;0.62;81.32;101363.09;7394225;19;20028;-68
2023/03/29 02:46:55;;;;;;;10.32;4.03;;;;;;;0.65;81.21;101358.03;7395682;19;20014;-68
2023/03/29 02:49:23;;;;;;;10.52;4.15;;;;;;;0.68;81.07;101347.75;7395331;19;20085;-68
2023/03/29 02:51:54;;;;;;;8.48;4.10;;;;;;;0.72;81.35;101348.72;7394938;19;20074;-68
2023/03/29 02:54:28;;;;;;;10.15;3.83;;;;;;;0.75;80.77;101352.28;7393170;19;20376;-68
2023/03/29 02:57:06;;;;;;;13.57;4.60;;;;;;;0.75;80.95;101344.53;7393892;19;20018;-68
2023/03/29 02:59:39;;;;;;;9.48;4.05;;;;;;;0.77;80.84;101335.13;7402501;19;20021;-68
2023/03/29 03:02:08;;;;;;;7.40;4.28;;;;;;;0.85;80.62;101334.44;7402653;19;20019;-68
2023/03/29 03:04:37;;;;;;;10.25;4.28;;;;;;;0.88;80.70;101326.78;7399182;19;20017;-68
2023/03/29 03:07:06;;;;;;;8.75;3.88;;;;;;;0.90;80.79;101330.31;7398914;19;20473;-69
2023/03/29 03:09:35;;;;;;;8.35;3.80;;;;;;;0.95;80.41;101326.13;7401632;19;20010;-69
2023/03/29 03:12:09;;;;;;;11.38;3.97;;;;;;;0.96;80.09;101328.75;7401454;19;20381;-69
2023/03/29 03:14:40;;;;;;;8.55;3.53;;;;;;;0.99;80.14;101325.38;7399463;19;20097;-68
2023/03/29 03:17:09;;;;;;;6.90;3.78;;;;;;;1.01;80.19;101326.31;7401577;19;20425;-68
2023/03/29 03:19:52;;;;;;;10.52;3.75;;;;;;;1.01;79.90;101318.56;7399446;19;20077;-68
2023/03/29 03:22:20;;;;;;;10.75;3.25;;;;;;;1.06;79.81;101321.25;7402169;19;20095;-68
2023/03/29 03:24:48;;;;;;;13.65;4.32;;;;;;;1.09;79.65;101318.75;7398549;19;20018;-68
2023/03/29 03:27:17;;;;;;;7.93;4.13;;;;;;;1.10;79.52;101312.72;7401057;19;20011;-69
2023/03/29 03:29:49;;;;;;;11.65;4.07;;;;;;;1.09;79.51;101311.00;7400466;19;20014;-69
2023/03/29 03:32:17;;;;;;;6.82;3.88;;;;;;;1.10;79.50;101307.56;7401624;19;20022;-68
2023/03/29 03:34:46;;;;;;;8.25;3.65;;;;;;;1.14;79.53;101304.25;7398198;19;20073;-69
2023/03/29 03:37:14;;;;;;;6.70;3.67;;;;;;;1.15;79.33;101295.66;7400639;19;20384;-68
2023/03/29 03:39:43;;;;;;;11.68;3.95;;;;;;;1.17;78.60;101300.84;7401697;19;20019;-68
2023/03/29 03:42:11;;;;;;;8.75;3.78;;;;;;;1.18;78.95;101305.19;7399551;19;20454;-69
2023/03/29 03:44:39;;;;;;;9.48;3.90;;;;;;;1.18;78.95;101302.63;7398429;19;20019;-67
2023/03/29 03:47:12;;;;;;;6.93;3.22;;;;;;;1.19;78.67;101306.91;7400773;19;20038;-68
2023/03/29 03:49:41;;;;;;;14.55;5.60;;;;;;;1.18;77.96;101300.03;7400481;19;20019;-67
2023/03/29 03:52:10;;;;;;;9.15;4.18;;;;;;;1.17;78.70;101299.13;7400675;19;20126;-68
2023/03/29 03:54:38;;;;;;;6.05;3.97;;;;;;;1.18;78.50;101300.88;7398470;19;20023;-69
2023/03/29 03:57:07;;;;;;;8.10;4.38;;;;;;;1.18;79.06;101297.44;7400280;19;20077;-69
2023/03/29 03:59:37;;;;;;;8.63;4.20;;;;;;;1.16;78.70;101294.78;7400287;19;20018;-69
2023/03/29 04:02:06;;;;;;;10.00;4.30;;;;;;;1.16;78.69;101293.94;7400039;19;20037;-69
2023/03/29 04:04:39;;;;;;;8.10;4.10;;;;;;;1.14;79.01;101286.16;7397432;19;20018;-69
2023/03/29 04:07:08;;;;;;;7.97;4.30;;;;;;;1.11;79.02;101292.13;7401040;19;20025;-68
2023/03/29 04:09:37;;;;;;;9.45;4.25;;;;;;;1.10;78.81;101292.94;7397386;19;20033;-68
2023/03/29 04:12:06;;;;;;;12.27;4.82;;;;;;;1.09;79.09;101291.19;7397082;19;20358;-69
2023/03/29 04:14:35;;;;;;;9.27;4.72;;;;;;;1.05;78.62;101284.19;7397706;19;20022;-69
2023/03/29 04:17:04;;;;;;;9.13;3.42;;;;;;;1.01;79.07;101287.53;7399524;19;20052;-69
2023/03/29 04:19:33;;;;;;;9.65;4.55;;;;;;;1.00;78.84;101290.97;7397548;19;20018;-69
2023/03/29 04:22:04;;;;;;;9.38;4.15;;;;;;;0.97;78.74;101290.84;7396542;19;20023;-68
2023/03/29 04:24:32;;;;;;;10.88;4.47;;;;;;;0.93;78.99;101284.72;7397216;19;20484;-68
2023/03/29 04:27:01;;;;;;;6.90;4.50;;;;;;;0.86;79.18;101276.78;7399306;19;20022;-68
2023/03/29 04:29:30;;;;;;;7.43;4.15;;;;;;;0.87;79.31;101281.97;7397113;19;20035;-69
2023/03/29 04:31:58;;;;;;;29.92;13.25;;;;;;;0.86;79.35;101281.94;7396665;19;20019;-68
2023/03/29 04:34:27;;;;;;;10.32;4.38;;;;;;;0.84;79.27;101286.22;7397291;19;20425;-68
2023/03/29 04:36:57;;;;;;;11.63;4.93;;;;;;;0.82;79.72;101286.16;7398751;19;20018;-68
2023/03/29 04:39:32;;;;;;;11.32;5.40;;;;;;;0.80;79.84;101283.53;7398967;19;20015;-67
2023/03/29 04:42:01;;;;;;;10.20;4.57;;;;;;;0.77;79.89;101283.47;7398885;19;20029;-68
2023/03/29 04:44:32;;;;;;;11.60;4.90;;;;;;;0.75;79.89;101285.13;7396580;19;20034;-68
2023/03/29 04:47:01;;;;;;;11.20;4.53;;;;;;;0.73;79.67;101285.91;7398927;19;20082;-68
2023/03/29 04:49:29;;;;;;;10.13;4.47;;;;;;;0.70;79.51;101276.38;7398235;19;20035;-69
2023/03/29 04:51:59;;;;;;;12.07;5.05;;;;;;;0.70;79.78;101280.69;7397388;19;20066;-68
2023/03/29 04:54:30;;;;;;;8.45;4.00;;;;;;;0.70;79.98;101270.34;7396698;19;20022;-68
2023/03/29 04:56:59;;;;;;;8.05;4.20;;;;;;;0.68;79.97;101265.13;7398441;19;20014;-69
2023/03/29 04:59:27;;;;;;;9.45;4.40;;;;;;;0.68;80.08;101262.53;7397045;19;20018;-68
2023/03/29 05:01:56;;;;;;;11.43;4.20;;;;;;;0.68;80.28;101259.09;7395698;19;20023;-69
2023/03/29 05:04:24;;;;;;;7.65;4.25;;;;;;;0.67;79.84;101257.34;7395421;19;20480;-69
2023/03/29 05:06:53;;;;;;;12.88;4.05;;;;;;;0.68;80.01;101261.66;7396071;19;20461;-69
2023/03/29 05:09:21;;;;;;;9.80;4.10;;;;;;;0.68;80.08;101262.53;7395445;19;20032;-69
2023/03/29 05:11:53;;;;;;;6.28;3.60;;;;;;;0.69;79.88;101255.69;7395073;19;20036;-69
2023/03/29 05:14:22;;;;;;;10.77;4.10;;;;;;;0.70;79.69;101249.69;7395378;19;20505;-68
2023/03/29 05:16:50;;;;;;;8.15;4.43;;;;;;;0.71;80.07;101254.88;7396896;19;20019;-67
2023/03/29 05:19:20;;;;;;;9.13;4.40;;;;;;;0.72;79.65;101248.88;7395172;19;20508;-68
2023/03/29 05:21:49;;;;;;;8.27;4.13;;;;;;;0.73;80.00;101240.28;7394982;19;20484;-68
2023/03/29 05:24:18;;;;;;;7.20;4.28;;;;;;;0.76;80.21;101250.72;7394206;19;20073;-69
2023/03/29 05:26:50;;;;;;;6.82;3.67;;;;;;;0.78;79.76;101236.16;7394814;19;20051;-69
2023/03/29 05:29:22;;;;;;;5.93;4.32;;;;;;;0.76;80.05;101234.34;7397386;19;20023;-68
2023/03/29 05:31:51;;;;;;;8.13;4.43;;;;;;;0.83;79.88;101227.63;7395760;19;20022;-68
2023/03/29 05:34:19;;;;;;;9.68;4.22;;;;;;;0.87;79.84;101229.44;7394886;19;20082;-68
2023/03/29 05:36:48;;;;;;;8.55;4.25;;;;;;;0.91;79.62;101231.28;7395980;19;20409;-68
2023/03/29 05:39:16;;;;;;;11.40;4.07;;;;;;;0.95;79.27;101233.97;7396416;19;20023;-69
2023/03/29 05:41:45;;;;;;;10.73;4.25;;;;;;;1.00;79.37;101234.09;7394600;19;20018;-69
2023/03/29 05:44:13;;;;;;;8.18;3.75;;;;;;;1.02;79.25;101229.84;7393981;19;20019;-69
2023/03/29 05:46:45;;;;;;;12.88;3.80;;;;;;;1.07;79.24;101228.25;7396201;19;20035;-69
2023/03/29 05:49:13;;;;;;;8.10;4.20;;;;;;;1.12;79.21;101234.38;7395502;19;20030;-68
2023/03/29 05:51:44;;;;;;;6.60;4.07;;;;;;;1.13;78.74;101230.97;7394554;19;20404;-67
2023/03/29 05:54:13;;;;;;;9.50;4.47;;;;;;;1.22;79.00;101235.50;7394308;19;20018;-68
2023/03/29 05:56:42;;;;;;;10.15;4.45;;;;;;;1.31;78.68;101242.59;7395644;19;20098;-70
2023/03/29 05:59:12;;;;;;;8.23;4.30;;;;;;;1.35;78.59;101240.97;7395133;19;20516;-69
2023/03/29 06:01:41;;;;;;;7.00;4.40;;;;;;;1.42;78.67;101235.13;7395459;19;20018;-69
2023/03/29 06:04:12;;;;;;;9.35;4.28;;;;;;;1.48;78.33;101237.84;7394550;19;20396;-69
2023/03/29 06:06:41;;;;;;;7.45;3.53;;;;;;;1.55;78.38;101237.13;7395541;19;20041;-67
2023/03/29 06:09:09;;;;;;;7.75;3.95;;;;;;;1.60;77.84;101234.66;7394883;19;20480;-68
2023/03/29 06:11:38;;;;;;;10.38;4.28;;;;;;;1.67;77.38;101233.09;7394014;19;20014;-68
2023/03/29 06:14:06;;;;;;;8.02;3.53;;;;;;;1.73;77.62;101233.22;7394555;19;20022;-68
2023/03/29 06:16:36;;;;;;;6.78;3.85;;;;;;;1.79;77.42;101234.25;7395192;19;20085;-68
2023/03/29 06:19:05;;;;;;;6.68;4.07;;;;;;;1.85;77.44;101227.47;7394449;19;20019;-68
2023/03/29 06:21:43;;;;;;;10.50;4.25;;;;;;;1.93;76.63;101225.91;7394017;19;20415;-69
2023/03/29 06:24:11;;;;;;;6.63;3.85;;;;;;;1.98;77.00;101213.94;7393658;19;20486;-68
2023/03/29 06:26:40;;;;;;;9.45;4.25;;;;;;;2.06;76.74;101212.41;7395527;19;20477;-69
2023/03/29 06:29:10;;;;;;;9.63;3.75;;;;;;;2.13;76.33;101209.94;7395171;19;20033;-69
2023/03/29 06:31:39;;;;;;;7.35;4.32;;;;;;;2.21;76.27;101205.78;7393854;19;20022;-69
2023/03/29 06:34:08;;;;;;;11.32;4.15;;;;;;;2.28;75.79;101211.09;7393794;19;20090;-69
2023/03/29 06:36:36;;;;;;;11.10;3.88;;;;;;;2.34;76.40;101206.88;7395052;19;20019;-69
2023/03/29 06:39:07;;;;;;;6.72;4.15;;;;;;;2.42;75.91;101213.94;7394941;19;20041;-69
2023/03/29 06:41:37;;;;;;;5.68;2.95;;;;;;;2.49;75.92;101217.56;7394385;19;20007;-68
2023/03/29 06:44:07;;;;;;;7.70;4.47;;;;;;;2.55;75.64;101211.59;7393058;19;20032;-69
2023/03/29 06:46:36;;;;;;;11.20;3.75;;;;;;;2.63;75.72;101209.16;7394441;19;20030;-68
2023/03/29 06:49:04;;;;;;;6.13;2.97;;;;;;;2.69;75.59;101204.09;7394218;19;20529;-67
2023/03/29 06:51:33;;;;;;;6.03;3.42;;;;;;;2.75;75.43;101209.38;7392890;19;20525;-69
2023/03/29 06:54:03;;;;;;;4.70;3.13;;;;;;;2.82;75.58;101210.34;7393850;19;20014;-69
2023/03/29 06:56:34;;;;;;;6.38;3.70;;;;;;;2.88;75.36;101210.47;7394658;19;20026;-69
2023/03/29 06:59:02;;;;;;;6.25;3.70;;;;;;;2.93;74.62;101207.13;7394170;19;20018;-68
2023/03/29 07:01:32;;;;;;;10.48;3.88;;;;;;;2.99;74.93;101208.06;7394345;19;20021;-68
2023/03/29 07:04:03;;;;;;;7.57;3.25;;;;;;;3.04;74.56;101207.28;7392902;19;20144;-69
2023/03/29 07:06:32;;;;;;;8.70;3.20;;;;;;;3.12;74.87;101207.41;7395650;19;20023;-69
2023/03/29 07:09:01;;;;;;;8.43;3.47;;;;;;;3.21;73.43;101214.47;7395079;19;20011;-69
2023/03/29 07:11:30;;;;;;;19.50;8.45;;;;;;;3.28;74.34;101202.50;7393221;19;20018;-69
2023/03/29 07:14:01;;;;;;;11.95;4.85;;;;;;;3.36;74.67;101212.13;7391539;19;20019;-68
2023/03/29 07:16:31;;;;;;;12.52;6.32;;;;;;;3.44;73.97;101212.25;7394708;19;20035;-68
2023/03/29 07:19:00;;;;;;;15.13;6.38;;;;;;;3.52;74.47;101214.97;7394052;19;20035;-69
2023/03/29 07:21:29;;;;;;;7.65;3.85;;;;;;;3.60;73.99;101215.91;7392519;19;20469;-69
2023/03/29 07:23:57;;;;;;;4.78;2.80;;;;;;;3.66;73.85;101209.97;7392555;19;20023;-69
2023/03/29 07:26:27;;;;;;;7.90;3.38;;;;;;;3.73;73.58;101214.41;7391099;19;20019;-68
2023/03/29 07:28:56;;;;;;;10.18;3.88;;;;;;;3.81;73.45;101206.72;7393534;19;20018;-68
2023/03/29 07:31:28;;;;;;;8.98;5.20;;;;;;;3.88;73.47;101209.41;7391680;19;20019;-69
2023/03/29 07:33:56;;;;;;;7.72;3.42;;;;;;;3.94;73.04;101192.16;7392549;19;20023;-69
2023/03/29 07:36:27;;;;;;;5.22;3.15;;;;;;;4.02;73.08;101207.00;7393483;19;20032;-69
2023/03/29 07:38:56;;;;;;;7.32;3.45;;;;;;;4.09;73.03;101205.34;7393979;19;20029;-68
2023/03/29 07:41:25;;;;;;;5.35;2.88;;;;;;;4.15;72.93;101212.34;7393404;19;20027;-69
2023/03/29 07:43:54;;;;;;;9.80;3.45;;;;;;;4.20;71.70;101208.06;7393846;19;20024;-69
2023/03/29 07:46:23;;;;;;;7.68;3.33;;;;;;;4.23;72.02;101214.19;7401137;19;20117;-68
2023/03/29 07:48:55;;;;;;;6.57;3.25;;;;;;;4.33;72.47;101222.94;7399629;19;20017;-69
2023/03/29 07:51:24;;;;;;;8.02;3.63;;;;;;;4.40;71.74;101216.97;7398880;19;20346;-69
2023/03/29 07:53:52;;;;;;;7.45;4.50;;;;;;;4.48;71.79;101213.59;7398464;19;20015;-68
2023/03/29 07:56:20;;;;;;;7.30;3.40;;;;;;;4.55;72.18;101215.41;7400363;19;20091;-68
2023/03/29 07:58:49;;;;;;;8.85;3.50;;;;;;;4.64;71.21;101218.09;7401477;19;20023;-72
2023/03/29 08:01:18;;;;;;;10.65;3.47;;;;;;;4.71;71.18;101217.31;7400099;19;20023;-72
2023/03/29 08:03:46;;;;;;;6.50;3.75;;;;;;;4.77;71.88;101213.03;7397959;19;20019;-72
2023/03/29 08:06:18;;;;;;;7.03;3.28;;;;;;;4.81;69.30;101217.38;7399241;19;20642;-72
2023/03/29 08:08:46;;;;;;;8.63;3.50;;;;;;;4.89;71.20;101207.91;7399070;19;20481;-70
2023/03/29 08:11:14;;;;;;;7.78;3.50;;;;;;;4.97;69.83;101210.59;7396833;19;20102;-73
2023/03/29 08:13:43;;;;;;;6.32;3.30;;;;;;;5.05;71.48;101209.81;7398245;19;20431;-72
2023/03/29 08:16:11;;;;;;;8.93;3.70;;;;;;;5.14;71.03;101200.34;7399667;19;20014;-73
2023/03/29 08:18:40;;;;;;;6.55;3.58;;;;;;;5.21;71.00;101195.19;7399582;19;20022;-72
2023/03/29 08:21:09;;;;;;;7.28;3.20;;;;;;;5.28;71.45;101190.91;7397157;19;20035;-71
2023/03/29 08:23:40;;;;;;;7.38;3.45;;;;;;;5.34;71.54;101188.34;7398059;19;20035;-71
2023/03/29 08:26:09;;;;;;;9.20;3.80;;;;;;;5.39;71.59;101191.84;7396443;19;20041;-70
2023/03/29 08:28:38;;;;;;;9.77;4.03;;;;;;;5.47;71.73;101183.22;7396581;19;20014;-71
2023/03/29 08:31:09;;;;;;;5.35;3.50;;;;;;;5.54;71.44;101185.00;7398263;19;20489;-72
2023/03/29 08:33:37;;;;;;;8.52;3.65;;;;;;;5.61;70.95;101186.78;7395968;19;20041;-72
2023/03/29 08:36:07;;;;;;;5.70;3.58;;;;;;;5.68;70.87;101178.13;7398222;19;20011;-73
2023/03/29 08:38:35;;;;;;;5.20;3.58;;;;;;;5.73;70.83;101172.09;7398772;19;20031;-72
2023/03/29 08:41:23;;;;;;;6.32;3.58;;;;;;;5.77;69.97;101177.31;7398943;19;20022;-72
2023/03/29 08:44:03;;;;;;;5.55;3.28;;;;;;;5.80;70.03;101166.03;7397864;19;20035;-72
2023/03/29 08:46:41;;;;;;;7.15;3.75;;;;;;;5.84;70.69;101167.81;7396094;19;20493;-72
2023/03/29 08:49:12;;;;;;;7.10;3.35;;;;;;;5.88;70.87;101161.75;7399032;19;20022;-73
2023/03/29 08:51:52;;;;;;;7.18;3.67;;;;;;;5.93;71.12;101165.25;7398312;19;20035;-71
2023/03/29 08:54:25;;;;;;;8.27;3.50;;;;;;;5.99;70.39;101167.03;7396276;19;20107;-72
2023/03/29 08:57:05;;;;;;;7.83;5.00;;;;;;;6.02;68.04;101165.31;7398163;19;20021;-72
2023/03/29 08:59:35;;;;;;;6.55;3.90;;;;;;;6.09;70.70;101157.50;7399174;19;20045;-72
2023/03/29 09:02:08;;;;;;;6.97;3.92;;;;;;;6.16;69.54;101175.78;7396793;19;20358;-72
2023/03/29 09:04:37;;;;;;;6.37;4.27;;;;;;;6.21;70.45;101160.16;7396431;19;20015;-72
2023/03/29 09:07:10;;;;;;;8.38;4.43;;;;;;;6.25;69.99;101161.91;7397305;19;20465;-72
2023/03/29 09:09:41;;;;;;;7.45;4.10;;;;;;;6.29;70.96;101155.88;7397606;19;20021;-72
2023/03/29 09:12:25;;;;;;;9.23;4.45;;;;;;;6.36;69.79;101156.75;7395690;19;20014;-72
2023/03/29 09:15:05;;;;;;;7.20;4.38;;;;;;;6.43;70.00;101150.69;7394864;19;20023;-72
2023/03/29 09:17:45;;;;;;;8.88;4.38;;;;;;;6.48;68.30;101153.28;7397111;19;20013;-72
2023/03/29 09:20:23;;;;;;;9.32;4.45;;;;;;;6.57;68.75;101152.41;7395806;19;20089;-70
2023/03/29 09:23:02;;;;;;;5.65;4.18;;;;;;;6.66;70.03;101160.25;7396872;19;20030;-70
2023/03/29 09:25:41;;;;;;;6.32;4.15;;;;;;;6.75;69.13;101154.16;7397032;19;20090;-71
2023/03/29 09:28:18;;;;;;;5.80;3.60;;;;;;;6.84;68.93;101156.81;7396273;19;20387;-72
2023/03/29 09:30:57;;;;;;;5.18;4.45;;;;;;;6.91;67.52;101161.13;7396858;19;20010;-73
2023/03/29 09:33:28;;;;;;;5.57;4.20;;;;;;;6.98;70.29;101162.03;7395045;19;20365;-71
2023/03/29 09:36:03;;;;;;;8.18;4.40;;;;;;;7.04;67.80;101163.75;7396479;19;20023;-72
2023/03/29 09:38:33;;;;;;;8.75;5.10;;;;;;;7.05;68.21;101161.16;7397398;19;20367;-72
2023/03/29 09:41:07;;;;;;;8.80;4.72;;;;;;;7.07;67.81;101159.41;7396674;19;20023;-73
2023/03/29 09:43:43;;;;;;;7.10;4.45;;;;;;;7.09;67.06;101151.56;7396197;19;20225;-73
2023/03/29 09:46:22;;;;;;;12.25;5.53;;;;;;;7.12;67.91;101147.22;7395850;19;20014;-72
2023/03/29 09:48:52;;;;;;;6.82;4.85;;;;;;;7.17;69.00;101155.91;7396782;19;20104;-71
2023/03/29 09:51:25;;;;;;;7.97;4.80;;;;;;;7.20;67.78;101155.03;7396416;19;20014;-71
2023/03/29 09:53:54;;;;;;;7.13;4.60;;;;;;;7.23;68.50;101143.72;7394349;19;20011;-72
2023/03/29 09:56:23;;;;;;;7.72;4.28;;;;;;;7.26;66.85;101149.81;7396059;19;20031;-76
2023/03/29 09:58:54;;;;;;;6.00;4.90;;;;;;;7.25;65.79;101141.97;7395557;19;20018;-72
2023/03/29 10:01:24;;;;;;;8.05;5.38;;;;;;;7.26;67.76;101141.97;7395946;19;20402;-71
2023/03/29 10:03:55;;;;;;;8.27;5.13;;;;;;;7.26;67.96;101141.97;7395028;19;20014;-72
2023/03/29 10:06:26;;;;;;;9.07;5.43;;;;;;;7.28;67.84;101144.56;7393740;19;20035;-72
2023/03/29 10:08:58;;;;;;;7.57;4.68;;;;;;;7.30;68.94;101135.91;7394611;19;20006;-71
2023/03/29 10:11:33;;;;;;;7.50;4.78;;;;;;;7.36;68.30;101139.38;7397491;19;20087;-72
2023/03/29 10:14:07;;;;;;;9.50;5.90;;;;;;;7.39;66.98;101131.50;7394043;19;20038;-72
2023/03/29 10:16:39;;;;;;;7.05;4.93;;;;;;;7.42;68.03;101129.78;7395358;19;20379;-71
2023/03/29 10:19:20;;;;;;;5.50;4.93;;;;;;;7.49;66.48;101130.63;7395824;19;20033;-72
2023/03/29 10:21:50;;;;;;;7.00;4.72;;;;;;;7.55;67.87;101122.75;7394155;19;20014;-72
2023/03/29 10:24:22;;;;;;;7.55;5.75;;;;;;;7.60;66.00;101117.53;7394020;19;20021;-73
2023/03/29 10:26:55;;;;;;;9.60;5.30;;;;;;;7.68;66.59;101120.13;7394988;19;20041;-72
2023/03/29 10:29:28;;;;;;;5.25;4.55;;;;;;;7.77;66.59;101115.72;7395510;19;20042;-73
2023/03/29 10:31:57;;;;;;;7.72;5.15;;;;;;;7.87;66.83;101121.75;7396548;19;20021;-71
2023/03/29 10:34:27;;;;;;;6.63;5.40;;;;;;;7.97;67.53;101115.66;7394433;19;20015;-70
2023/03/29 10:36:59;;;;;;;9.75;5.70;;;;;;;8.06;64.80;101111.22;7394359;19;20367;-72
2023/03/29 10:39:30;;;;;;;8.95;5.03;;;;;;;8.13;66.08;101110.34;7394389;19;20518;-72
2023/03/29 10:42:01;;;;;;;6.72;4.68;;;;;;;8.22;66.50;101112.88;7392703;19;20018;-70
2023/03/29 10:44:34;;;;;;;9.65;5.28;;;;;;;8.31;65.75;101097.16;7392782;19;20031;-71
2023/03/29 10:47:18;;;;;;;9.10;5.63;;;;;;;8.42;64.84;101099.69;7394842;19;20091;-69
2023/03/29 10:49:51;;;;;;;8.13;5.32;;;;;;;8.53;65.70;101099.66;7394606;19;20467;-69
2023/03/29 10:52:20;;;;;;;8.68;5.20;;;;;;;8.61;66.15;101100.44;7394118;19;20027;-68
2023/03/29 10:54:49;;;;;;;8.68;4.97;;;;;;;8.68;65.87;101095.16;7393363;19;20022;-68
2023/03/29 10:57:27;;;;;;;8.18;4.85;;;;;;;8.76;64.33;101090.75;7395798;19;20023;-70
2023/03/29 11:00:05;;;;;;;6.70;4.22;;;;;;;8.85;62.92;101095.88;7394543;19;20419;-70
2023/03/29 11:03:01;;;;;;;7.63;5.07;;;;;;;8.95;62.33;101089.69;7392459;19;20011;-69
2023/03/29 11:05:33;;;;;;;8.10;5.15;;;;;;;9.02;63.90;101089.63;7393903;19;20461;-70
2023/03/29 11:08:19;;;;;;;8.35;4.50;;;;;;;9.12;60.90;101093.88;7392275;19;20087;-67
2023/03/29 11:10:55;;;;;;;6.32;4.47;;;;;;;9.14;61.55;101086.91;7393166;19;20506;-70
2023/03/29 11:13:34;;;;;;;6.90;5.03;;;;;;;9.20;61.43;101081.59;7392476;19;20010;-72
2023/03/29 11:16:15;;;;;;;5.57;4.50;;;;;;;9.26;63.30;101075.41;7393556;19;20485;-70
2023/03/29 11:18:57;;;;;;;6.68;4.78;;;;;;;9.33;61.15;101078.84;7396948;19;20022;-69
2023/03/29 11:21:32;;;;;;;5.63;4.35;;;;;;;9.39;62.99;101069.16;7397934;19;20011;-69
2023/03/29 11:24:22;;;;;;;7.55;5.43;;;;;;;9.49;62.45;101063.81;7397398;19;20477;-70
2023/03/29 11:27:03;;;;;;;7.15;5.63;;;;;;;9.53;61.58;101053.28;7399950;19;20103;-69
2023/03/29 11:29:41;;;;;;;6.80;4.60;;;;;;;9.63;62.77;101056.66;7399744;19;20343;-69
2023/03/29 11:32:17;;;;;;;6.65;4.97;;;;;;;9.70;61.63;101049.56;7399684;19;20010;-69
2023/03/29 11:34:58;;;;;;;7.38;5.18;;;;;;;9.78;61.91;101055.56;7397644;19;20014;-68
2023/03/29 11:37:32;;;;;;;5.32;4.32;;;;;;;9.86;61.74;101051.09;7397415;19;20339;-69
2023/03/29 11:40:17;;;;;;;6.85;4.60;;;;;;;9.92;62.34;101045.78;7399903;19;20097;-68
2023/03/29 11:42:50;;;;;;;10.02;4.30;;;;;;;10.02;62.21;101043.91;7400780;19;20086;-68
2023/03/29 11:45:27;;;;;;;7.93;5.18;;;;;;;10.10;62.65;101031.53;7400756;19;20033;-69
2023/03/29 11:48:00;;;;;;;6.30;4.40;;;;;;;10.16;61.64;101045.44;7398232;19;20029;-68
2023/03/29 11:50:33;;;;;;;7.05;4.55;;;;;;;10.22;62.19;101043.59;7401212;19;20018;-68
2023/03/29 11:53:04;;;;;;;8.57;4.80;;;;;;;10.25;62.27;101038.28;7399977;19;20030;-69